Weather at Ministro Pistarini International Airport

Public forecast

Using degrees Celsius for public forecast. Weather courtesy of forecast.io.

Current aviation weather report (METAR) for Ministro Pistarini International Airport

Retrieved 2021/09/24 18:00 UTC (32 minutes ago):

SAEZ 241800Z 07010KT 9999 BKN045 20/10 Q1023 NOSIG

Aviation forecast (TAF) for Ministro Pistarini International Airport

Retrieved 2021/09/24 18:00 UTC (32 minutes ago):

TAF SAEZ 241700Z 2418/2518 09010KT 9999 FEW040 TX22/2518Z TN09/2509Z BECMG 2503/2505 3000 BR NSC TEMPO 2408/2411 0500 FG FEW005 BECMG 2513/2515 03015KT CAVOK